Time;durP1;ratioP1;P1;durP2;ratioP2;P2;SDS_P1;SDS_P2;PMS_P1;PMS_P2;Temp;Humidity;BMP_temperature;BMP_pressure;BME280_temperature;BME280_humidity;BME280_pressure;Samples;Min_cycle;Max_cycle;Signal;HPM_P1;HPM_P2
2021/06/14 00:00:56;;;;;;;7.22;3.30;;;11.30;99.90;;;;;;5084669;28;19923;-51
2021/06/14 00:03:22;;;;;;;;;;;11.30;99.90;;;;;;5084989;28;20044;-54
2021/06/14 00:05:48;;;;;;;9.48;2.88;;;11.20;99.90;;;;;;5084761;28;19927;-50
2021/06/14 00:08:15;;;;;;;;;;;11.10;99.90;;;;;;5067756;28;20036;-54
2021/06/14 00:10:42;;;;;;;8.43;4.20;;;11.20;99.90;;;;;;5084501;28;20514;-52
2021/06/14 00:13:08;;;;;;;7.90;4.15;;;11.20;99.90;;;;;;5085304;28;20056;-54
2021/06/14 00:15:35;;;;;;;12.32;4.50;;;11.20;99.90;;;;;;5085127;28;20500;-51
2021/06/14 00:18:01;;;;;;;9.68;3.83;;;11.20;99.90;;;;;;5076208;28;20045;-55
2021/06/14 00:20:27;;;;;;;8.32;3.28;;;11.10;99.90;;;;;;5071492;28;20041;-53
2021/06/14 00:22:53;;;;;;;;;;;11.10;99.90;;;;;;5072304;28;20482;-51
2021/06/14 00:25:22;;;;;;;10.30;4.00;;;11.00;99.90;;;;;;5071435;28;19916;-51
2021/06/14 00:27:48;;;;;;;9.27;3.55;;;11.10;99.90;;;;;;5071318;28;20045;-51
2021/06/14 00:30:14;;;;;;;;;;;11.00;99.90;;;;;;5071529;28;20036;-51
2021/06/14 00:32:39;;;;;;;7.60;3.45;;;11.00;99.90;;;;;;5071956;28;20502;-50
2021/06/14 00:35:05;;;;;;;;;;;11.00;99.90;;;;;;5070962;28;20036;-52
2021/06/14 00:37:32;;;;;;;7.18;3.85;;;11.00;99.90;;;;;;5071591;28;19917;-49
2021/06/14 00:39:58;;;;;;;10.82;3.65;;;11.00;99.90;;;;;;5070915;28;20060;-52
2021/06/14 00:42:23;;;;;;;;;;;10.90;99.90;;;;;;5071534;28;20068;-49
2021/06/14 00:44:49;;;;;;;17.98;4.95;;;10.70;99.90;;;;;;5071103;28;19923;-52
2021/06/14 00:47:14;;;;;;;;;;;10.70;99.90;;;;;;5071104;28;20051;-50
2021/06/14 00:49:40;;;;;;;9.77;3.30;;;10.80;99.90;;;;;;5071008;28;20299;-49
2021/06/14 00:52:06;;;;;;;;;;;10.70;99.90;;;;;;5071423;28;20061;-53
2021/06/14 00:54:31;;;;;;;10.18;3.70;;;10.70;99.90;;;;;;5071540;28;20295;-61
2021/06/14 00:56:57;;;;;;;;;;;10.80;99.90;;;;;;5071509;28;20407;-53
2021/06/14 00:59:24;;;;;;;7.63;3.60;;;10.80;99.90;;;;;;5070565;28;19920;-53
2021/06/14 01:01:50;;;;;;;8.60;3.70;;;10.80;99.90;;;;;;5069990;28;20131;-53
2021/06/14 01:04:15;;;;;;;;;;;10.70;99.90;;;;;;5071479;28;20129;-48
2021/06/14 01:06:41;;;;;;;7.63;3.35;;;10.70;99.90;;;;;;5070950;28;19975;-56
2021/06/14 01:09:07;;;;;;;;;;;10.80;99.90;;;;;;5071012;28;20036;-51
2021/06/14 01:11:41;;;;;;;10.73;3.40;;;10.80;99.90;;;;;;5070393;28;19916;-51
2021/06/14 01:14:18;;;;;;;12.57;5.25;;;10.70;99.90;;;;;;5052990;28;20072;-51
2021/06/14 01:17:04;;;;;;;8.90;4.25;;;10.70;99.90;;;;;;5069240;28;20123;-55
2021/06/14 01:19:33;;;;;;;9.40;4.05;;;10.80;99.90;;;;;;5070176;28;20044;-54
2021/06/14 01:22:34;;;;;;;8.05;4.03;;;10.80;99.90;;;;;;5070048;28;20049;-49
2021/06/14 01:25:24;;;;;;;11.27;4.20;;;10.70;99.90;;;;;;5070079;28;20039;-58
2021/06/14 01:27:57;;;;;;;9.57;3.40;;;10.70;99.90;;;;;;5070350;28;20056;-57
2021/06/14 01:30:31;;;;;;;10.60;3.33;;;10.80;99.90;;;;;;5068671;28;20060;-50
2021/06/14 01:32:57;;;;;;;7.35;3.42;;;10.70;99.90;;;;;;5070442;28;20391;-53
2021/06/14 01:35:37;;;;;;;6.20;3.60;;;10.60;99.90;;;;;;5069490;28;20036;-52
2021/06/14 01:38:06;;;;;;;8.63;3.58;;;10.60;99.90;;;;;;5069596;28;20128;-52
2021/06/14 01:40:33;;;;;;;8.18;3.92;;;10.60;99.90;;;;;;5066359;28;20040;-53
2021/06/14 01:43:03;;;;;;;8.88;3.33;;;10.60;99.90;;;;;;5051968;28;20041;-56
2021/06/14 01:45:30;;;;;;;9.02;3.92;;;10.60;99.90;;;;;;5069475;28;20284;-53
2021/06/14 01:47:58;;;;;;;6.70;3.53;;;10.40;99.90;;;;;;5069885;28;20040;-54
2021/06/14 01:50:28;;;;;;;9.05;3.50;;;10.40;99.90;;;;;;5069995;28;20104;-52
2021/06/14 01:52:55;;;;;;;13.00;4.38;;;10.40;99.90;;;;;;5069257;28;20044;-54
2021/06/14 01:55:21;;;;;;;7.82;3.30;;;10.40;99.90;;;;;;5069698;28;20048;-53
2021/06/14 01:57:47;;;;;;;7.32;3.80;;;10.50;99.90;;;;;;5069716;28;20036;-51
2021/06/14 02:00:14;;;;;;;8.52;3.90;;;10.50;99.90;;;;;;5066557;28;20048;-53
2021/06/14 02:02:42;;;;;;;7.53;3.50;;;10.50;99.90;;;;;;5049716;28;20677;-54
2021/06/14 02:05:09;;;;;;;8.60;3.60;;;10.50;99.90;;;;;;5049673;28;20037;-54
2021/06/14 02:07:36;;;;;;;12.18;3.75;;;10.40;99.90;;;;;;5049374;28;20412;-55
2021/06/14 02:10:04;;;;;;;11.90;4.45;;;10.40;99.90;;;;;;5056390;28;20040;-52
2021/06/14 02:12:30;;;;;;;9.85;3.97;;;10.40;99.90;;;;;;5069433;28;20041;-55
2021/06/14 02:14:57;;;;;;;7.60;3.50;;;10.30;99.90;;;;;;5069627;28;20495;-56
2021/06/14 02:17:26;;;;;;;7.70;3.75;;;10.30;99.90;;;;;;5068251;28;20048;-55
2021/06/14 02:19:51;;;;;;;8.00;3.63;;;10.20;99.90;;;;;;5069151;28;20040;-55
2021/06/14 02:22:18;;;;;;;;;;;10.20;99.90;;;;;;5070109;28;20032;-56
2021/06/14 02:24:44;;;;;;;9.93;3.67;;;10.10;99.90;;;;;;5069226;28;19981;-56
2021/06/14 02:27:10;;;;;;;;;;;10.20;99.90;;;;;;5069246;28;20052;-51
2021/06/14 02:29:36;;;;;;;8.87;3.43;;;10.20;99.90;;;;;;5069007;28;19923;-56
2021/06/14 02:32:02;;;;;;;;;;;10.10;99.90;;;;;;5069321;28;20044;-52
2021/06/14 02:34:27;;;;;;;11.18;3.22;;;10.10;99.90;;;;;;5068965;28;19916;-53
2021/06/14 02:36:54;;;;;;;;;;;10.10;99.90;;;;;;5051609;28;20048;-54
2021/06/14 02:39:26;;;;;;;6.70;3.55;;;10.10;99.90;;;;;;5069114;28;19916;-49
2021/06/14 02:41:53;;;;;;;8.05;3.85;;;10.10;99.90;;;;;;5068287;28;20051;-55
2021/06/14 02:44:22;;;;;;;7.28;3.17;;;10.10;99.90;;;;;;5068407;28;20052;-49
2021/06/14 02:46:49;;;;;;;7.90;3.60;;;10.00;99.90;;;;;;5068506;28;20543;-53
2021/06/14 02:49:16;;;;;;;6.93;3.25;;;10.10;99.90;;;;;;5068828;28;20040;-56
2021/06/14 02:51:44;;;;;;;10.07;4.10;;;10.10;99.90;;;;;;5068858;28;20044;-53
2021/06/14 02:54:18;;;;;;;8.93;3.95;;;10.00;99.90;;;;;;5069196;28;20079;-52
2021/06/14 02:56:46;;;;;;;10.68;3.78;;;10.00;99.90;;;;;;5065026;28;20660;-56
2021/06/14 02:59:15;;;;;;;8.20;3.53;;;10.10;99.90;;;;;;5048706;28;20079;-51
2021/06/14 03:01:48;;;;;;;6.75;3.33;;;10.10;99.90;;;;;;5048478;28;20129;-51
2021/06/14 03:04:15;;;;;;;9.88;4.07;;;10.00;99.90;;;;;;5049024;28;20090;-52
2021/06/14 03:06:43;;;;;;;9.82;4.03;;;10.00;99.90;;;;;;5048003;28;20045;-56
2021/06/14 03:09:09;;;;;;;8.05;3.70;;;10.00;99.90;;;;;;5048085;28;20087;-56
2021/06/14 03:11:37;;;;;;;7.28;3.88;;;10.00;99.90;;;;;;5068159;28;20114;-52
2021/06/14 03:14:03;;;;;;;11.35;4.05;;;9.90;99.90;;;;;;5068962;28;20074;-56
2021/06/14 03:16:31;;;;;;;13.43;4.00;;;10.00;99.90;;;;;;5067995;28;20071;-56
2021/06/14 03:18:57;;;;;;;8.70;3.60;;;9.90;99.90;;;;;;5068367;28;20563;-54
2021/06/14 03:21:23;;;;;;;;;;;10.00;99.90;;;;;;5069485;28;20055;-54
2021/06/14 03:23:49;;;;;;;10.00;3.70;;;10.00;99.90;;;;;;5068198;28;19923;-53
2021/06/14 03:26:16;;;;;;;13.35;4.32;;;10.00;99.90;;;;;;5067888;28;20762;-54
2021/06/14 03:28:45;;;;;;;11.30;3.47;;;9.90;99.90;;;;;;5068565;28;20130;-51
2021/06/14 03:31:13;;;;;;;10.60;3.75;;;9.80;99.90;;;;;;5068225;28;20044;-51
2021/06/14 03:33:40;;;;;;;11.48;3.63;;;9.90;99.90;;;;;;5068512;28;20044;-52
2021/06/14 03:36:07;;;;;;;11.07;4.10;;;9.80;99.90;;;;;;5068343;28;20115;-52
2021/06/14 03:38:33;;;;;;;7.47;3.42;;;9.90;99.90;;;;;;5068307;28;20041;-56
2021/06/14 03:41:03;;;;;;;;;;;10.30;99.90;;;;;;5068590;28;20032;-53
2021/06/14 03:43:29;;;;;;;8.15;3.13;;;10.60;99.90;;;;;;5068731;28;19916;-51
2021/06/14 03:45:54;;;;;;;;;;;10.60;99.90;;;;;;5068607;28;20059;-52
2021/06/14 03:48:19;;;;;;;9.60;3.47;;;10.60;99.90;;;;;;5068128;28;20533;-57
2021/06/14 03:50:45;;;;;;;;;;;10.70;99.90;;;;;;5065492;28;20147;-50
2021/06/14 03:53:10;;;;;;;7.25;3.10;;;10.90;99.90;;;;;;5070108;28;19920;-47
2021/06/14 03:55:36;;;;;;;;;;;11.00;99.90;;;;;;5068995;28;20041;-49
2021/06/14 03:58:01;;;;;;;7.68;3.38;;;10.90;99.90;;;;;;5051640;28;20428;-50
2021/06/14 04:00:27;;;;;;;;;;;10.90;99.90;;;;;;5052255;28;20120;-52
2021/06/14 04:02:53;;;;;;;8.65;3.20;;;11.00;99.90;;;;;;5057243;28;19916;-52
2021/06/14 04:05:19;;;;;;;6.38;3.25;;;10.90;99.90;;;;;;5071311;28;20748;-55
2021/06/14 04:07:44;;;;;;;;;;;11.00;99.90;;;;;;5071715;28;20033;-51
2021/06/14 04:10:11;;;;;;;13.13;3.47;;;11.20;99.90;;;;;;5071744;28;19920;-51
2021/06/14 04:12:36;;;;;;;8.65;3.42;;;11.40;99.90;;;;;;5071490;28;20075;-51
2021/06/14 04:15:03;;;;;;;;;;;11.40;99.90;;;;;;5071667;28;20071;-57
2021/06/14 04:17:28;;;;;;;7.68;3.15;;;11.60;99.90;;;;;;5071256;28;19999;-57
2021/06/14 04:19:54;;;;;;;;;;;11.70;99.90;;;;;;5072180;28;20460;-52
2021/06/14 04:22:19;;;;;;;13.05;3.38;;;11.90;99.90;;;;;;5072241;28;20557;-53
2021/06/14 04:24:45;;;;;;;;;;;11.90;99.90;;;;;;5072113;28;20044;-57
2021/06/14 04:27:11;;;;;;;11.75;3.88;;;12.00;99.90;;;;;;5071643;28;19971;-54
2021/06/14 04:29:37;;;;;;;11.18;3.28;;;12.20;99.90;;;;;;5071644;28;20395;-57
2021/06/14 04:32:04;;;;;;;9.43;3.58;;;12.30;99.90;;;;;;5070599;28;20040;-54
2021/06/14 04:34:29;;;;;;;6.82;3.05;;;12.80;99.90;;;;;;5065265;28;20040;-54
2021/06/14 04:36:55;;;;;;;;;;;13.90;99.90;;;;;;5051858;28;20074;-52
2021/06/14 04:39:20;;;;;;;8.48;3.10;;;14.20;99.00;;;;;;5052676;28;20434;-56
2021/06/14 04:41:46;;;;;;;;;;;14.10;99.10;;;;;;5070187;28;20128;-56
2021/06/14 04:44:12;;;;;;;7.18;2.95;;;13.90;99.90;;;;;;5071441;28;19923;-52
2021/06/14 04:46:38;;;;;;;;;;;13.90;99.90;;;;;;5071513;28;20602;-56
2021/06/14 04:49:03;;;;;;;7.03;3.17;;;13.80;99.90;;;;;;5070807;28;19916;-54
2021/06/14 04:51:29;;;;;;;;;;;13.90;99.90;;;;;;5071720;28;20040;-54
2021/06/14 04:53:55;;;;;;;5.97;2.88;;;13.90;99.90;;;;;;5071210;28;19943;-55
2021/06/14 04:56:21;;;;;;;7.72;3.10;;;14.00;99.90;;;;;;5070838;28;20063;-54
2021/06/14 04:58:46;;;;;;;;;;;14.10;99.90;;;;;;5071053;28;20841;-53
2021/06/14 05:01:12;;;;;;;8.32;3.65;;;14.30;99.00;;;;;;5069921;28;19920;-55
2021/06/14 05:03:37;;;;;;;;;;;14.50;98.80;;;;;;5071677;28;20040;-54
2021/06/14 05:06:03;;;;;;;6.63;3.33;;;14.40;99.50;;;;;;5070565;28;20026;-54
2021/06/14 05:08:28;;;;;;;;;;;14.50;97.90;;;;;;5071116;28;20491;-56
2021/06/14 05:10:54;;;;;;;10.68;3.38;;;14.50;99.80;;;;;;5070668;28;19939;-49
2021/06/14 05:13:19;;;;;;;;;;;14.60;99.60;;;;;;5070990;28;20041;-57
2021/06/14 05:15:45;;;;;;;9.50;3.55;;;14.60;98.80;;;;;;5070088;28;19920;-52
2021/06/14 05:18:11;;;;;;;;;;;14.70;98.80;;;;;;5070622;28;20474;-54
2021/06/14 05:20:37;;;;;;;7.80;3.13;;;14.90;97.90;;;;;;5070778;28;19974;-52
2021/06/14 05:23:03;;;;;;;;;;;15.00;97.20;;;;;;5071086;28;20044;-55
2021/06/14 05:25:30;;;;;;;7.03;2.60;;;15.10;97.90;;;;;;5070153;28;20330;-54
2021/06/14 05:27:55;;;;;;;9.13;2.78;;;15.30;97.50;;;;;;5070254;28;20047;-52
2021/06/14 05:30:21;;;;;;;;;;;15.30;97.30;;;;;;5070652;28;20048;-50
2021/06/14 05:32:47;;;;;;;5.85;2.72;;;15.40;95.40;;;;;;5070044;28;19959;-55
2021/06/14 05:35:13;;;;;;;;;;;15.80;95.70;;;;;;5070441;28;20047;-55
2021/06/14 05:37:38;;;;;;;6.75;2.70;;;16.00;95.60;;;;;;5070438;28;19928;-54
2021/06/14 05:40:05;;;;;;;;;;;16.00;92.90;;;;;;5070427;28;20431;-52
2021/06/14 05:42:31;;;;;;;12.00;3.17;;;16.10;92.90;;;;;;5069296;28;19916;-56
2021/06/14 05:44:57;;;;;;;6.28;2.97;;;16.20;92.60;;;;;;5067091;28;20392;-56
2021/06/14 05:47:23;;;;;;;;;;;16.40;91.80;;;;;;5070183;28;20048;-55
2021/06/14 05:49:48;;;;;;;12.60;3.38;;;16.40;91.70;;;;;;5069507;28;19973;-52
2021/06/14 05:52:14;;;;;;;;;;;16.40;91.20;;;;;;5070365;28;20093;-57
2021/06/14 05:54:40;;;;;;;8.55;2.53;;;16.30;91.90;;;;;;5069996;28;19918;-55
2021/06/14 05:57:06;;;;;;;;;;;16.40;92.30;;;;;;5070103;28;20412;-54
2021/06/14 05:59:31;;;;;;;6.47;3.00;;;16.50;91.50;;;;;;5062953;28;19966;-54
2021/06/14 06:01:57;;;;;;;;;;;16.70;91.80;;;;;;5066906;28;20075;-56
2021/06/14 06:04:22;;;;;;;9.05;3.13;;;16.80;92.00;;;;;;5062950;28;19931;-56
2021/06/14 06:06:48;;;;;;;;;;;16.80;92.10;;;;;;5057801;28;20037;-53
2021/06/14 06:09:14;;;;;;;11.07;3.72;;;16.90;91.40;;;;;;5057451;28;19916;-58
2021/06/14 06:11:39;;;;;;;;;;;17.00;90.90;;;;;;5068870;28;20227;-53
2021/06/14 06:14:06;;;;;;;5.03;2.70;;;17.30;90.70;;;;;;5069583;28;19920;-56
2021/06/14 06:16:32;;;;;;;11.00;4.05;;;17.80;90.50;;;;;;5068288;28;20515;-52
2021/06/14 06:18:57;;;;;;;;;;;18.40;88.40;;;;;;5070091;28;20047;-53
2021/06/14 06:21:23;;;;;;;4.50;2.05;;;20.00;84.20;;;;;;5069568;28;19916;-53
2021/06/14 06:23:49;;;;;;;;;;;20.80;80.60;;;;;;5069775;28;20048;-54
2021/06/14 06:26:14;;;;;;;9.50;3.08;;;20.10;77.70;;;;;;5069106;28;20027;-57
2021/06/14 06:28:40;;;;;;;;;;;19.60;82.00;;;;;;5069668;28;20119;-55
2021/06/14 06:31:05;;;;;;;6.13;2.78;;;19.30;84.30;;;;;;5068854;28;19927;-61
2021/06/14 06:33:31;;;;;;;;;;;18.90;82.40;;;;;;5051001;28;20086;-58
2021/06/14 06:35:56;;;;;;;6.00;2.65;;;19.00;84.10;;;;;;5069332;28;19920;-60
2021/06/14 06:38:22;;;;;;;7.60;2.78;;;19.20;83.60;;;;;;5069281;28;20084;-60
2021/06/14 06:40:47;;;;;;;10.65;3.85;;;19.30;83.50;;;;;;5068436;28;20043;-58
2021/06/14 06:43:13;;;;;;;;;;;19.10;83.80;;;;;;5069064;28;20146;-61
2021/06/14 06:45:39;;;;;;;6.35;2.75;;;18.60;83.80;;;;;;5068802;28;19951;-62
2021/06/14 06:48:04;;;;;;;;;;;18.50;84.00;;;;;;5069504;28;20049;-61
2021/06/14 06:50:30;;;;;;;6.45;2.47;;;18.50;84.40;;;;;;5068951;28;19998;-61
2021/06/14 06:52:55;;;;;;;;;;;18.60;85.10;;;;;;5069458;28;20484;-60
2021/06/14 06:55:22;;;;;;;7.53;3.17;;;18.60;82.00;;;;;;5068754;28;19920;-60
2021/06/14 06:57:48;;;;;;;7.00;2.80;;;18.60;82.20;;;;;;5068274;28;20086;-59
2021/06/14 07:00:15;;;;;;;;;;;18.70;84.80;;;;;;5068664;28;20446;-59
2021/06/14 07:02:41;;;;;;;6.15;2.92;;;18.80;82.60;;;;;;5068986;28;19945;-59
2021/06/14 07:05:07;;;;;;;;;;;18.60;85.20;;;;;;5068979;28;20044;-60
2021/06/14 07:07:32;;;;;;;6.03;2.40;;;18.50;83.60;;;;;;5068759;28;20011;-60
2021/06/14 07:09:58;;;;;;;;;;;18.50;86.10;;;;;;5068957;28;20119;-59
2021/06/14 07:12:24;;;;;;;8.82;3.20;;;18.40;85.00;;;;;;5068921;28;20429;-59
2021/06/14 07:14:50;;;;;;;;;;;18.60;85.50;;;;;;5068819;28;20029;-60
2021/06/14 07:17:16;;;;;;;7.47;2.80;;;18.80;86.00;;;;;;5068057;28;19923;-59
2021/06/14 07:19:41;;;;;;;;;;;18.80;84.00;;;;;;5069334;28;20047;-61
2021/06/14 07:22:07;;;;;;;14.18;3.38;;;19.00;84.50;;;;;;5068925;28;20045;-59
2021/06/14 07:24:32;;;;;;;;;;;19.00;84.50;;;;;;5068898;28;20039;-60
2021/06/14 07:26:58;;;;;;;7.30;2.90;;;19.00;84.60;;;;;;5068669;28;20336;-60
2021/06/14 07:29:23;;;;;;;;;;;19.00;85.10;;;;;;5064841;28;20044;-57
2021/06/14 07:31:49;;;;;;;7.63;2.60;;;19.10;85.50;;;;;;5069565;28;20003;-60
2021/06/14 07:34:14;;;;;;;7.95;2.83;;;19.20;84.40;;;;;;5070640;28;20043;-59
2021/06/14 07:36:40;;;;;;;10.60;3.08;;;19.30;81.70;;;;;;5072180;28;20409;-60
2021/06/14 07:39:05;;;;;;;;;;;19.70;82.80;;;;;;5072958;28;20496;-60
2021/06/14 07:41:31;;;;;;;12.43;3.78;;;19.90;81.30;;;;;;5071804;28;19924;-61
2021/06/14 07:43:57;;;;;;;5.68;2.33;;;20.10;79.00;;;;;;5070098;28;20037;-61
2021/06/14 07:46:23;;;;;;;6.47;2.78;;;20.30;78.70;;;;;;5071761;28;20049;-58
2021/06/14 07:48:48;;;;;;;10.32;3.00;;;20.40;78.90;;;;;;5067022;28;20116;-60
2021/06/14 07:51:14;;;;;;;6.53;2.80;;;20.30;79.40;;;;;;5052268;28;20454;-59
2021/06/14 07:53:39;;;;;;;;;;;20.20;76.70;;;;;;5053126;28;20655;-60
2021/06/14 07:56:07;;;;;;;5.32;2.72;;;20.10;77.20;;;;;;5059683;28;20020;-58
2021/06/14 07:58:32;;;;;;;6.25;2.63;;;20.20;78.30;;;;;;5071721;28;20052;-61
2021/06/14 08:00:58;;;;;;;7.25;2.65;;;20.30;78.70;;;;;;5071243;28;20036;-61
2021/06/14 08:03:24;;;;;;;9.80;2.90;;;20.40;79.90;;;;;;5072589;28;20040;-60
2021/06/14 08:05:52;;;;;;;5.45;2.78;;;20.40;79.10;;;;;;5071578;28;20079;-59
2021/06/14 08:08:19;;;;;;;6.50;2.40;;;20.70;81.20;;;;;;5071734;28;20411;-60
2021/06/14 08:10:46;;;;;;;7.07;2.67;;;21.60;77.60;;;;;;5071636;28;20052;-60
2021/06/14 08:13:12;;;;;;;6.57;2.55;;;22.40;74.00;;;;;;5071779;28;20048;-61
2021/06/14 08:15:39;;;;;;;4.63;2.60;;;22.40;73.10;;;;;;5070950;28;20071;-60
2021/06/14 08:20:43;;;;;;;7.40;2.72;;;22.10;74.10;;;;;;5069469;28;20066;-60
2021/06/14 08:25:53;;;;;;;7.07;2.67;;;22.30;72.10;;;;;;5071118;28;20139;-59
2021/06/14 08:28:19;;;;;;;7.00;2.20;;;22.30;72.40;;;;;;5071672;28;20127;-61
2021/06/14 08:30:45;;;;;;;5.32;2.42;;;22.60;74.40;;;;;;5070705;28;20040;-61
2021/06/14 08:33:10;;;;;;;7.63;2.85;;;23.00;70.30;;;;;;5071236;28;20041;-61
2021/06/14 08:35:36;;;;;;;8.20;2.92;;;24.20;68.50;;;;;;5071498;28;20068;-61
2021/06/14 08:38:02;;;;;;;4.50;2.30;;;25.10;66.50;;;;;;5070671;28;20043;-61
2021/06/14 08:40:30;;;;;;;4.10;1.90;;;25.00;61.60;;;;;;5070872;28;20404;-61
2021/06/14 08:43:03;;;;;;;8.45;2.17;;;25.10;62.70;;;;;;5050663;28;20053;-61
2021/06/14 08:45:30;;;;;;;10.07;2.88;;;25.10;63.60;;;;;;5051134;28;20407;-59
2021/06/14 08:47:55;;;;;;;4.53;2.05;;;25.00;62.80;;;;;;5051014;28;20512;-57
2021/06/14 08:50:21;;;;;;;6.57;2.25;;;24.80;60.70;;;;;;5068748;28;20068;-60
2021/06/14 08:52:48;;;;;;;7.18;3.13;;;24.60;63.50;;;;;;5070994;28;20090;-60
2021/06/14 08:55:15;;;;;;;9.68;2.78;;;24.80;61.80;;;;;;5070978;28;20044;-61
2021/06/14 08:57:41;;;;;;;6.28;2.80;;;25.00;60.50;;;;;;5050672;28;20051;-61
2021/06/14 09:00:10;;;;;;;7.93;2.17;;;25.30;58.90;;;;;;5050965;28;20438;-61
2021/06/14 09:02:36;;;;;;;9.25;3.25;;;25.60;58.50;;;;;;5050753;28;20120;-60
2021/06/14 09:05:03;;;;;;;7.35;2.65;;;25.30;57.70;;;;;;5050977;28;20045;-60
2021/06/14 09:07:29;;;;;;;9.13;2.53;;;24.80;60.00;;;;;;5050510;28;20080;-60
2021/06/14 09:09:54;;;;;;;6.30;2.45;;;24.30;61.80;;;;;;5056781;28;20072;-60
2021/06/14 09:12:20;;;;;;;6.85;2.60;;;23.90;63.70;;;;;;5070435;28;20029;-58
2021/06/14 09:14:46;;;;;;;5.55;2.75;;;23.60;64.80;;;;;;5070564;28;20491;-59
2021/06/14 09:17:14;;;;;;;3.72;2.22;;;23.30;63.70;;;;;;5070095;28;20044;-60
2021/06/14 09:19:48;;;;;;;6.95;2.70;;;23.20;67.20;;;;;;5070462;28;20041;-61
2021/06/14 09:22:21;;;;;;;9.15;2.65;;;23.10;65.50;;;;;;5053498;28;20239;-60
2021/06/14 09:25:01;;;;;;;6.82;2.42;;;23.00;64.60;;;;;;5067777;28;20507;-59
2021/06/14 09:27:46;;;;;;;6.45;2.58;;;23.00;68.70;;;;;;5058997;28;20047;-60
2021/06/14 09:30:17;;;;;;;4.57;2.42;;;22.90;66.30;;;;;;5063309;28;20123;-61
2021/06/14 09:33:00;;;;;;;6.25;2.78;;;22.90;69.10;;;;;;5070552;28;20036;-58
2021/06/14 09:35:30;;;;;;;8.70;2.85;;;23.00;69.70;;;;;;5067114;28;20047;-58
2021/06/14 09:38:07;;;;;;;8.98;2.60;;;23.00;67.20;;;;;;5069536;28;20087;-58
2021/06/14 09:40:35;;;;;;;5.35;2.75;;;23.10;68.20;;;;;;5070082;28;20043;-61
2021/06/14 09:43:01;;;;;;;4.45;2.35;;;23.10;69.90;;;;;;5069582;28;20041;-60
2021/06/14 09:45:27;;;;;;;5.80;2.58;;;23.20;69.50;;;;;;5069377;28;20044;-60
2021/06/14 09:47:54;;;;;;;7.95;2.75;;;23.10;69.00;;;;;;5070121;28;20044;-57
2021/06/14 09:50:25;;;;;;;6.88;2.80;;;23.20;68.60;;;;;;5069387;28;20045;-59
2021/06/14 09:53:02;;;;;;;7.28;2.70;;;23.20;71.40;;;;;;5069514;28;20086;-59
2021/06/14 09:55:28;;;;;;;6.50;2.83;;;23.30;69.60;;;;;;5067908;28;20070;-59
2021/06/14 09:57:54;;;;;;;5.75;2.83;;;23.30;67.10;;;;;;5049582;28;20080;-59
2021/06/14 10:00:21;;;;;;;8.45;2.83;;;23.40;71.70;;;;;;5068936;28;20068;-61
2021/06/14 10:02:46;;;;;;;8.77;3.45;;;23.40;69.40;;;;;;5069793;28;20508;-60
2021/06/14 10:05:20;;;;;;;7.13;2.83;;;23.50;71.00;;;;;;5068934;28;20037;-61
2021/06/14 10:07:50;;;;;;;5.53;2.63;;;23.60;67.20;;;;;;5067492;28;20578;-59
2021/06/14 10:10:25;;;;;;;6.32;2.22;;;23.70;68.30;;;;;;5064371;28;20036;-59
2021/06/14 10:12:53;;;;;;;7.97;2.45;;;23.80;69.10;;;;;;5069060;28;20044;-58
2021/06/14 10:15:35;;;;;;;6.78;2.20;;;23.80;67.50;;;;;;5063727;28;20055;-59
2021/06/14 10:18:04;;;;;;;6.82;2.38;;;23.80;72.20;;;;;;5057902;28;20120;-59
2021/06/14 10:20:30;;;;;;;4.47;2.40;;;23.80;67.70;;;;;;5065553;28;20041;-59
2021/06/14 10:22:59;;;;;;;6.18;2.70;;;23.80;68.30;;;;;;5069136;28;20044;-59
2021/06/14 10:25:26;;;;;;;5.13;2.53;;;23.90;67.60;;;;;;5066150;28;20037;-59
2021/06/14 10:27:53;;;;;;;3.22;1.90;;;23.90;66.40;;;;;;5062852;28;20076;-59
2021/06/14 10:30:22;;;;;;;4.97;2.35;;;24.00;65.80;;;;;;5050049;28;20041;-59
2021/06/14 10:32:48;;;;;;;7.78;2.40;;;24.00;67.70;;;;;;5054054;28;20037;-59
2021/06/14 10:35:17;;;;;;;9.07;2.42;;;24.00;65.30;;;;;;5069273;28;20139;-58
2021/06/14 10:37:44;;;;;;;7.80;2.83;;;24.00;66.60;;;;;;5069058;28;20053;-59
2021/06/14 10:40:12;;;;;;;4.80;2.08;;;24.00;66.90;;;;;;5064314;28;20097;-59
2021/06/14 10:42:40;;;;;;;8.27;2.60;;;24.00;65.70;;;;;;5066240;28;20066;-58
2021/06/14 10:45:11;;;;;;;4.88;2.00;;;24.00;64.00;;;;;;5061045;28;20048;-58
2021/06/14 10:47:39;;;;;;;4.85;1.90;;;24.10;66.60;;;;;;5060053;28;20593;-56
2021/06/14 10:50:06;;;;;;;6.70;2.75;;;24.20;65.70;;;;;;5065884;28;20040;-59
2021/06/14 10:52:39;;;;;;;6.35;1.95;;;24.20;67.40;;;;;;5068889;28;20614;-56
2021/06/14 10:55:10;;;;;;;14.52;3.10;;;24.20;66.90;;;;;;5069083;28;20044;-58
2021/06/14 10:57:36;;;;;;;7.75;2.25;;;24.20;64.00;;;;;;5061253;28;20412;-58
2021/06/14 11:00:04;;;;;;;6.20;2.22;;;24.20;67.50;;;;;;5066938;28;20041;-59
2021/06/14 11:02:31;;;;;;;6.78;2.40;;;24.30;66.60;;;;;;5068062;28;20044;-59
2021/06/14 11:05:05;;;;;;;5.32;2.15;;;24.40;68.60;;;;;;5068780;28;20079;-59
2021/06/14 11:07:30;;;;;;;4.90;2.05;;;24.40;65.30;;;;;;5064987;28;20127;-58
2021/06/14 11:09:56;;;;;;;8.30;2.60;;;24.40;64.60;;;;;;5063027;28;20124;-59
2021/06/14 11:12:29;;;;;;;4.03;2.22;;;24.50;65.30;;;;;;5067478;28;20561;-56
2021/06/14 11:14:55;;;;;;;6.47;2.40;;;24.60;64.00;;;;;;5068528;28;20040;-59
2021/06/14 11:17:24;;;;;;;4.13;2.15;;;24.50;64.50;;;;;;5067598;28;20056;-60
2021/06/14 11:19:59;;;;;;;9.18;2.80;;;24.60;64.50;;;;;;5068459;28;20044;-59
2021/06/14 11:22:37;;;;;;;4.53;2.47;;;24.60;64.70;;;;;;5068112;28;20672;-59
2021/06/14 11:25:33;;;;;;;4.38;2.50;;;24.60;65.60;;;;;;5059822;28;20056;-59
2021/06/14 11:28:01;;;;;;;7.18;2.30;;;24.70;67.40;;;;;;5061567;28;20048;-59
2021/06/14 11:30:46;;;;;;;6.07;2.33;;;24.70;63.70;;;;;;5044840;28;20052;-59
2021/06/14 11:33:27;;;;;;;6.38;2.30;;;24.70;67.20;;;;;;5062218;28;20036;-60
2021/06/14 11:35:55;;;;;;;11.68;2.47;;;24.80;64.40;;;;;;5068361;28;20106;-59
2021/06/14 11:38:22;;;;;;;6.75;2.40;;;24.80;63.90;;;;;;5068291;28;20033;-60
2021/06/14 11:40:57;;;;;;;5.38;2.30;;;24.80;66.50;;;;;;5068428;28;20045;-59
2021/06/14 11:43:23;;;;;;;4.13;1.75;;;24.80;63.40;;;;;;5068085;28;20722;-59
2021/06/14 11:45:50;;;;;;;5.85;2.17;;;24.90;62.00;;;;;;5060954;28;20549;-59
2021/06/14 11:48:22;;;;;;;4.70;2.33;;;25.10;65.90;;;;;;5068081;28;20098;-60
2021/06/14 11:50:48;;;;;;;5.40;2.05;;;25.20;66.70;;;;;;5048337;28;20080;-60
2021/06/14 11:53:13;;;;;;;6.20;1.88;;;25.20;62.30;;;;;;5030310;28;20041;-59
2021/06/14 11:55:41;;;;;;;10.35;2.85;;;25.20;60.40;;;;;;5052083;28;20043;-60
2021/06/14 11:58:09;;;;;;;5.13;2.33;;;25.30;62.90;;;;;;5068414;28;20037;-59
2021/06/14 12:00:45;;;;;;;10.70;2.78;;;25.30;65.50;;;;;;5067561;28;20093;-59
2021/06/14 12:03:29;;;;;;;4.57;2.22;;;25.40;63.30;;;;;;5068638;28;20040;-60
2021/06/14 12:05:55;;;;;;;10.00;3.47;;;25.40;64.00;;;;;;5068008;28;20044;-60
2021/06/14 12:08:23;;;;;;;6.57;3.60;;;25.50;64.00;;;;;;5067742;28;20079;-60
2021/06/14 12:10:51;;;;;;;6.05;2.78;;;25.40;61.40;;;;;;5068024;28;20091;-60
2021/06/14 12:13:18;;;;;;;4.85;2.20;;;25.50;62.10;;;;;;5068554;28;20040;-59
2021/06/14 12:15:47;;;;;;;4.20;2.13;;;25.50;61.70;;;;;;5070538;28;20032;-59
2021/06/14 12:18:13;;;;;;;7.25;2.45;;;25.40;60.30;;;;;;5071830;28;20041;-60
2021/06/14 12:20:42;;;;;;;4.88;1.85;;;25.00;58.40;;;;;;5070795;28;20037;-59
2021/06/14 12:23:09;;;;;;;6.35;1.83;;;24.90;59.70;;;;;;5066078;28;20071;-60
2021/06/14 12:25:41;;;;;;;3.95;1.98;;;25.00;60.40;;;;;;5071459;28;20064;-59
2021/06/14 12:28:09;;;;;;;4.85;1.90;;;25.20;61.00;;;;;;5071533;28;20036;-60
2021/06/14 12:30:35;;;;;;;5.50;2.40;;;25.40;63.50;;;;;;5070505;28;20049;-60
2021/06/14 12:33:02;;;;;;;5.93;2.50;;;25.30;59.90;;;;;;5071529;28;20404;-60
2021/06/14 12:35:28;;;;;;;9.02;5.72;;;25.20;58.50;;;;;;5071658;28;20064;-60
2021/06/14 12:37:55;;;;;;;9.93;3.03;;;25.20;62.40;;;;;;5071152;28;20048;-60
2021/06/14 12:40:26;;;;;;;7.07;2.10;;;25.20;61.90;;;;;;5070877;28;20402;-60
2021/06/14 12:42:58;;;;;;;3.75;1.60;;;25.20;59.60;;;;;;5071186;28;20047;-60
2021/06/14 12:45:24;;;;;;;3.22;1.55;;;25.40;54.40;;;;;;5070335;28;20052;-60
2021/06/14 12:47:53;;;;;;;2.60;1.52;;;25.40;57.90;;;;;;5071150;28;20045;-60
2021/06/14 12:50:26;;;;;;;3.22;1.50;;;25.40;58.80;;;;;;5071186;28;20047;-60
2021/06/14 12:52:53;;;;;;;2.45;1.50;;;25.30;54.20;;;;;;5070884;28;20411;-60
2021/06/14 12:55:24;;;;;;;8.52;1.80;;;25.20;56.20;;;;;;5070651;28;20037;-59
2021/06/14 12:57:50;;;;;;;2.63;1.40;;;25.20;62.70;;;;;;5070915;28;20048;-60
2021/06/14 13:00:20;;;;;;;4.00;1.50;;;25.20;56.20;;;;;;5070535;28;20043;-60
2021/06/14 13:02:51;;;;;;;4.30;1.30;;;25.20;55.00;;;;;;5070641;28;20706;-59
2021/06/14 13:05:17;;;;;;;4.35;1.50;;;25.30;57.20;;;;;;5070959;28;20067;-60
2021/06/14 13:08:02;;;;;;;8.07;1.70;;;25.30;55.80;;;;;;5070885;28;20129;-59